sensor_id;sensor_type;location;lat;lon;timestamp;pressure;altitude;pressure_sealevel;temperature;humidity
67654;BME280;54791;52.364;4.648;2022-10-16T00:00:27;100818.34;;;13.46;100.00
67654;BME280;54791;52.364;4.648;2022-10-16T00:02:53;100819.81;;;13.52;100.00
67654;BME280;54791;52.364;4.648;2022-10-16T00:05:19;100820.31;;;13.43;100.00
67654;BME280;54791;52.364;4.648;2022-10-16T00:07:45;100817.94;;;13.37;100.00
67654;BME280;54791;52.364;4.648;2022-10-16T00:10:11;100823.31;;;13.35;100.00
67654;BME280;54791;52.364;4.648;2022-10-16T00:12:36;100827.72;;;13.36;100.00
67654;BME280;54791;52.364;4.648;2022-10-16T00:15:02;100828.09;;;13.28;100.00
67654;BME280;54791;52.364;4.648;2022-10-16T00:17:29;100829.97;;;13.26;100.00
67654;BME280;54791;52.364;4.648;2022-10-16T00:19:55;100829.19;;;13.24;100.00
67654;BME280;54791;52.364;4.648;2022-10-16T00:22:20;100829.19;;;13.24;100.00
67654;BME280;54791;52.364;4.648;2022-10-16T00:24:46;100835.28;;;13.26;100.00
67654;BME280;54791;52.364;4.648;2022-10-16T00:27:12;100833.63;;;13.24;100.00
67654;BME280;54791;52.364;4.648;2022-10-16T00:29:37;100826.38;;;13.27;100.00
67654;BME280;54791;52.364;4.648;2022-10-16T00:32:03;100823.72;;;13.27;100.00
67654;BME280;54791;52.364;4.648;2022-10-16T00:34:29;100819.22;;;13.28;100.00
67654;BME280;54791;52.364;4.648;2022-10-16T00:36:55;100814.78;;;13.28;100.00
67654;BME280;54791;52.364;4.648;2022-10-16T00:39:21;100812.22;;;13.27;100.00
67654;BME280;54791;52.364;4.648;2022-10-16T00:41:47;100806.00;;;13.26;100.00
67654;BME280;54791;52.364;4.648;2022-10-16T00:44:43;100808.44;;;13.31;100.00
67654;BME280;54791;52.364;4.648;2022-10-16T00:47:11;100809.06;;;13.36;100.00
67654;BME280;54791;52.364;4.648;2022-10-16T00:49:38;100809.16;;;13.34;100.00
67654;BME280;54791;52.364;4.648;2022-10-16T00:52:05;100811.81;;;13.34;100.00
67654;BME280;54791;52.364;4.648;2022-10-16T00:54:32;100819.22;;;13.28;100.00
67654;BME280;54791;52.364;4.648;2022-10-16T00:57:01;100818.16;;;13.32;100.00
67654;BME280;54791;52.364;4.648;2022-10-16T00:59:31;100821.59;;;13.34;100.00
67654;BME280;54791;52.364;4.648;2022-10-16T01:01:58;100824.06;;;13.39;100.00
67654;BME280;54791;52.364;4.648;2022-10-16T01:04:25;100825.84;;;13.38;100.00
67654;BME280;54791;52.364;4.648;2022-10-16T01:10:41;100825.63;;;13.43;100.00
67654;BME280;54791;52.364;4.648;2022-10-16T01:13:11;100827.34;;;13.44;100.00
67654;BME280;54791;52.364;4.648;2022-10-16T01:18:15;100819.50;;;13.41;100.00
67654;BME280;54791;52.364;4.648;2022-10-16T01:20:50;100834.47;;;13.43;100.00
67654;BME280;54791;52.364;4.648;2022-10-16T01:23:30;100829.22;;;13.42;100.00
67654;BME280;54791;52.364;4.648;2022-10-16T01:29:34;100826.34;;;13.46;100.00
67654;BME280;54791;52.364;4.648;2022-10-16T01:31:53;100824.84;;;13.41;100.00
67654;BME280;54791;52.364;4.648;2022-10-16T01:34:27;100830.47;;;13.34;100.00
67654;BME280;54791;52.364;4.648;2022-10-16T01:37:05;100827.72;;;13.36;100.00
67654;BME280;54791;52.364;4.648;2022-10-16T01:39:35;100828.47;;;13.40;100.00
67654;BME280;54791;52.364;4.648;2022-10-16T01:42:09;100828.47;;;13.40;100.00
67654;BME280;54791;52.364;4.648;2022-10-16T01:44:35;100819.47;;;13.42;100.00
67654;BME280;54791;52.364;4.648;2022-10-16T01:47:03;100826.66;;;13.40;100.00
67654;BME280;54791;52.364;4.648;2022-10-16T01:49:33;100830.38;;;13.36;100.00
67654;BME280;54791;52.364;4.648;2022-10-16T01:52:03;100830.31;;;13.38;100.00
67654;BME280;54791;52.364;4.648;2022-10-16T01:54:32;100832.31;;;13.32;100.00
67654;BME280;54791;52.364;4.648;2022-10-16T01:56:59;100840.31;;;13.32;100.00
67654;BME280;54791;52.364;4.648;2022-10-16T01:59:27;100835.78;;;13.34;100.00
67654;BME280;54791;52.364;4.648;2022-10-16T02:02:00;100834.28;;;13.29;100.00
67654;BME280;54791;52.364;4.648;2022-10-16T02:04:31;100834.13;;;13.32;100.00
67654;BME280;54791;52.364;4.648;2022-10-16T02:06:57;100840.41;;;13.31;100.00
67654;BME280;54791;52.364;4.648;2022-10-16T02:09:23;100849.31;;;13.30;100.00
67654;BME280;54791;52.364;4.648;2022-10-16T02:11:52;100842.50;;;13.24;100.00
67654;BME280;54791;52.364;4.648;2022-10-16T02:14:19;100849.47;;;13.27;100.00
67654;BME280;54791;52.364;4.648;2022-10-16T02:16:46;100857.59;;;13.24;100.00
67654;BME280;54791;52.364;4.648;2022-10-16T02:19:13;100863.00;;;13.22;100.00
67654;BME280;54791;52.364;4.648;2022-10-16T02:21:44;100845.22;;;13.23;100.00
67654;BME280;54791;52.364;4.648;2022-10-16T02:24:54;100852.53;;;13.19;100.00
67654;BME280;54791;52.364;4.648;2022-10-16T02:27:27;100854.63;;;13.12;100.00
67654;BME280;54791;52.364;4.648;2022-10-16T02:30:05;100858.44;;;13.07;100.00
67654;BME280;54791;52.364;4.648;2022-10-16T02:32:36;100856.06;;;13.00;100.00
67654;BME280;54791;52.364;4.648;2022-10-16T02:35:04;100862.28;;;13.01;100.00
67654;BME280;54791;52.364;4.648;2022-10-16T02:37:31;100866.94;;;12.96;100.00
67654;BME280;54791;52.364;4.648;2022-10-16T02:39:58;100864.56;;;12.90;100.00
67654;BME280;54791;52.364;4.648;2022-10-16T02:42:29;100868.16;;;12.89;100.00
67654;BME280;54791;52.364;4.648;2022-10-16T02:44:58;100863.94;;;12.84;100.00
67654;BME280;54791;52.364;4.648;2022-10-16T02:47:23;100877.41;;;12.81;100.00
67654;BME280;54791;52.364;4.648;2022-10-16T02:49:49;100870.44;;;12.79;100.00
67654;BME280;54791;52.364;4.648;2022-10-16T02:52:14;100879.41;;;12.76;100.00
67654;BME280;54791;52.364;4.648;2022-10-16T02:54:40;100880.25;;;12.77;100.00
67654;BME280;54791;52.364;4.648;2022-10-16T02:57:06;100885.38;;;12.81;100.00
67654;BME280;54791;52.364;4.648;2022-10-16T02:59:31;100894.41;;;12.77;100.00
67654;BME280;54791;52.364;4.648;2022-10-16T03:01:57;100885.78;;;12.72;100.00
67654;BME280;54791;52.364;4.648;2022-10-16T03:04:23;100890.34;;;12.70;100.00
67654;BME280;54791;52.364;4.648;2022-10-16T03:06:48;100892.84;;;12.73;100.00
67654;BME280;54791;52.364;4.648;2022-10-16T03:09:14;100892.84;;;12.73;100.00
67654;BME280;54791;52.364;4.648;2022-10-16T03:11:40;100896.38;;;12.74;100.00
67654;BME280;54791;52.364;4.648;2022-10-16T03:14:05;100901.63;;;12.75;100.00
67654;BME280;54791;52.364;4.648;2022-10-16T03:16:31;100908.53;;;12.79;100.00
67654;BME280;54791;52.364;4.648;2022-10-16T03:18:56;100897.88;;;12.79;100.00
67654;BME280;54791;52.364;4.648;2022-10-16T03:21:22;100904.28;;;12.75;100.00
67654;BME280;54791;52.364;4.648;2022-10-16T03:23:48;100895.41;;;12.75;100.00
67654;BME280;54791;52.364;4.648;2022-10-16T03:26:13;100900.53;;;12.79;100.00
67654;BME280;54791;52.364;4.648;2022-10-16T03:28:39;100894.41;;;12.77;100.00
67654;BME280;54791;52.364;4.648;2022-10-16T03:31:04;100897.06;;;12.77;100.00
67654;BME280;54791;52.364;4.648;2022-10-16T03:33:30;100895.38;;;12.76;100.00
67654;BME280;54791;52.364;4.648;2022-10-16T03:35:56;100897.50;;;12.68;100.00
67654;BME280;54791;52.364;4.648;2022-10-16T03:38:22;100893.84;;;12.70;100.00
67654;BME280;54791;52.364;4.648;2022-10-16T03:40:48;100905.50;;;12.68;100.00
67654;BME280;54791;52.364;4.648;2022-10-16T03:43:13;100909.16;;;12.65;100.00
67654;BME280;54791;52.364;4.648;2022-10-16T03:45:39;100906.66;;;12.62;100.00
67654;BME280;54791;52.364;4.648;2022-10-16T03:48:05;100907.66;;;12.60;100.00
67654;BME280;54791;52.364;4.648;2022-10-16T03:50:31;100916.13;;;12.68;100.00
67654;BME280;54791;52.364;4.648;2022-10-16T03:52:57;100916.00;;;12.71;100.00
67654;BME280;54791;52.364;4.648;2022-10-16T03:55:23;100920.31;;;12.74;100.00
67654;BME280;54791;52.364;4.648;2022-10-16T03:57:48;100920.38;;;12.72;100.00
67654;BME280;54791;52.364;4.648;2022-10-16T04:00:14;100925.50;;;12.77;100.00
67654;BME280;54791;52.364;4.648;2022-10-16T04:02:40;100928.94;;;12.79;100.00
67654;BME280;54791;52.364;4.648;2022-10-16T04:05:07;100931.47;;;12.82;100.00
67654;BME280;54791;52.364;4.648;2022-10-16T04:07:32;100922.31;;;12.88;100.00
67654;BME280;54791;52.364;4.648;2022-10-16T04:09:58;100924.13;;;12.87;100.00
67654;BME280;54791;52.364;4.648;2022-10-16T04:12:25;100924.97;;;12.88;100.00
67654;BME280;54791;52.364;4.648;2022-10-16T04:14:51;100931.25;;;12.86;100.00
67654;BME280;54791;52.364;4.648;2022-10-16T04:17:17;100929.44;;;12.87;100.00
67654;BME280;54791;52.364;4.648;2022-10-16T04:19:42;100927.63;;;12.88;100.00
67654;BME280;54791;52.364;4.648;2022-10-16T04:22:08;100930.94;;;12.93;100.00
67654;BME280;54791;52.364;4.648;2022-10-16T04:24:34;100930.66;;;12.99;100.00
67654;BME280;54791;52.364;4.648;2022-10-16T04:27:00;100934.69;;;12.89;100.00
67654;BME280;54791;52.364;4.648;2022-10-16T04:29:25;100927.50;;;12.91;100.00
67654;BME280;54791;52.364;4.648;2022-10-16T04:31:51;100932.69;;;12.94;100.00
67654;BME280;54791;52.364;4.648;2022-10-16T04:34:17;100937.34;;;12.89;100.00
67654;BME280;54791;52.364;4.648;2022-10-16T04:36:43;100937.94;;;12.95;100.00
67654;BME280;54791;52.364;4.648;2022-10-16T04:39:08;100941.47;;;12.96;100.00
67654;BME280;54791;52.364;4.648;2022-10-16T04:41:34;100954.03;;;12.92;100.00
67654;BME280;54791;52.364;4.648;2022-10-16T04:44:00;100963.75;;;12.93;100.00
67654;BME280;54791;52.364;4.648;2022-10-16T04:46:25;100957.63;;;12.91;100.00
67654;BME280;54791;52.364;4.648;2022-10-16T04:48:51;100963.03;;;12.90;100.00
67654;BME280;54791;52.364;4.648;2022-10-16T04:51:17;100970.09;;;12.91;100.00
67654;BME280;54791;52.364;4.648;2022-10-16T04:53:44;100970.75;;;12.96;100.00
67654;BME280;54791;52.364;4.648;2022-10-16T04:56:09;100969.75;;;12.98;100.00
67654;BME280;54791;52.364;4.648;2022-10-16T04:58:35;100984.78;;;12.99;100.00
67654;BME280;54791;52.364;4.648;2022-10-16T05:01:01;100982.16;;;12.98;100.00
67654;BME280;54791;52.364;4.648;2022-10-16T05:03:26;100980.31;;;13.00;100.00
67654;BME280;54791;52.364;4.648;2022-10-16T05:05:52;100983.13;;;12.97;100.00
67654;BME280;54791;52.364;4.648;2022-10-16T05:08:18;100986.78;;;12.94;100.00
67654;BME280;54791;52.364;4.648;2022-10-16T05:10:44;100991.50;;;12.88;100.00
67654;BME280;54791;52.364;4.648;2022-10-16T05:13:10;100996.13;;;12.84;100.00
67654;BME280;54791;52.364;4.648;2022-10-16T05:15:36;100995.25;;;12.83;100.00
67654;BME280;54791;52.364;4.648;2022-10-16T05:18:02;101000.84;;;12.77;100.00
67654;BME280;54791;52.364;4.648;2022-10-16T05:20:28;100999.25;;;12.73;100.00
67654;BME280;54791;52.364;4.648;2022-10-16T05:22:53;101011.16;;;12.64;100.00
67654;BME280;54791;52.364;4.648;2022-10-16T05:25:19;101021.09;;;12.61;100.00
67654;BME280;54791;52.364;4.648;2022-10-16T05:27:48;101027.34;;;12.60;100.00
67654;BME280;54791;52.364;4.648;2022-10-16T05:30:15;101027.94;;;12.66;100.00
67654;BME280;54791;52.364;4.648;2022-10-16T05:32:41;101030.94;;;12.59;100.00
67654;BME280;54791;52.364;4.648;2022-10-16T05:35:07;101035.72;;;12.50;100.00
67654;BME280;54791;52.364;4.648;2022-10-16T05:37:33;101041.13;;;12.49;100.00
67654;BME280;54791;52.364;4.648;2022-10-16T05:39:59;101034.84;;;12.50;100.00
67654;BME280;54791;52.364;4.648;2022-10-16T05:42:24;101029.59;;;12.48;100.00
67654;BME280;54791;52.364;4.648;2022-10-16T05:44:50;101027.75;;;12.50;100.00
67654;BME280;54791;52.364;4.648;2022-10-16T05:47:16;101037.50;;;12.50;100.00
67654;BME280;54791;52.364;4.648;2022-10-16T05:49:42;101035.06;;;12.45;100.00
67654;BME280;54791;52.364;4.648;2022-10-16T05:52:07;101042.78;;;12.51;100.00
67654;BME280;54791;52.364;4.648;2022-10-16T05:54:33;101039.38;;;12.48;100.00
67654;BME280;54791;52.364;4.648;2022-10-16T05:56:59;101028.09;;;12.43;100.00
67654;BME280;54791;52.364;4.648;2022-10-16T05:59:25;101041.16;;;12.47;100.00
67654;BME280;54791;52.364;4.648;2022-10-16T06:01:50;101038.66;;;12.44;100.00
67654;BME280;54791;52.364;4.648;2022-10-16T06:04:16;101046.63;;;12.44;100.00
67654;BME280;54791;52.364;4.648;2022-10-16T06:06:42;101047.47;;;12.45;100.00
67654;BME280;54791;52.364;4.648;2022-10-16T06:09:09;101037.97;;;12.39;100.00
67654;BME280;54791;52.364;4.648;2022-10-16T06:11:36;101038.84;;;12.40;100.00
67654;BME280;54791;52.364;4.648;2022-10-16T06:14:02;101041.56;;;12.38;100.00
67654;BME280;54791;52.364;4.648;2022-10-16T06:16:32;101047.03;;;12.35;100.00
67654;BME280;54791;52.364;4.648;2022-10-16T06:18:58;101048.44;;;12.44;100.00
67654;BME280;54791;52.364;4.648;2022-10-16T06:21:28;101061.00;;;12.40;100.00
67654;BME280;54791;52.364;4.648;2022-10-16T06:23:55;101054.69;;;12.43;100.00
67654;BME280;54791;52.364;4.648;2022-10-16T06:26:24;101062.31;;;12.50;100.00
67654;BME280;54791;52.364;4.648;2022-10-16T06:28:50;101070.41;;;12.47;100.00
67654;BME280;54791;52.364;4.648;2022-10-16T06:31:16;101067.72;;;12.49;100.00
67654;BME280;54791;52.364;4.648;2022-10-16T06:33:42;101079.88;;;12.55;100.00
67654;BME280;54791;52.364;4.648;2022-10-16T06:36:10;101081.78;;;12.51;100.00
67654;BME280;54791;52.364;4.648;2022-10-16T06:38:36;101085.34;;;12.51;100.00
67654;BME280;54791;52.364;4.648;2022-10-16T06:41:03;101088.03;;;12.50;100.00
67654;BME280;54791;52.364;4.648;2022-10-16T06:43:29;101095.09;;;12.51;100.00
67654;BME280;54791;52.364;4.648;2022-10-16T06:46:01;101091.66;;;12.49;100.00
67654;BME280;54791;52.364;4.648;2022-10-16T06:48:28;101110.59;;;12.41;100.00
67654;BME280;54791;52.364;4.648;2022-10-16T06:50:59;101105.31;;;12.40;100.00
67654;BME280;54791;52.364;4.648;2022-10-16T06:53:28;101114.03;;;12.43;100.00
67654;BME280;54791;52.364;4.648;2022-10-16T06:55:54;101106.72;;;12.48;100.00
67654;BME280;54791;52.364;4.648;2022-10-16T06:58:20;101108.59;;;12.46;100.00
67654;BME280;54791;52.364;4.648;2022-10-16T07:00:47;101130.72;;;12.47;100.00
67654;BME280;54791;52.364;4.648;2022-10-16T07:03:13;101123.75;;;12.44;100.00
67654;BME280;54791;52.364;4.648;2022-10-16T07:05:40;101123.81;;;12.43;100.00
67654;BME280;54791;52.364;4.648;2022-10-16T07:08:06;101138.97;;;12.41;100.00
67654;BME280;54791;52.364;4.648;2022-10-16T07:10:32;101137.63;;;12.51;100.00
67654;BME280;54791;52.364;4.648;2022-10-16T07:12:58;101144.63;;;12.53;100.00
67654;BME280;54791;52.364;4.648;2022-10-16T07:15:30;101153.78;;;12.68;100.00
67654;BME280;54791;52.364;4.648;2022-10-16T07:17:58;101145.91;;;12.65;100.00
67654;BME280;54791;52.364;4.648;2022-10-16T07:20:23;101153.94;;;12.64;100.00
67654;BME280;54791;52.364;4.648;2022-10-16T07:22:50;101156.16;;;12.75;100.00
67654;BME280;54791;52.364;4.648;2022-10-16T07:25:16;101172.84;;;12.78;100.00
67654;BME280;54791;52.364;4.648;2022-10-16T07:27:42;101167.66;;;12.75;100.00
67654;BME280;54791;52.364;4.648;2022-10-16T07:30:08;101184.16;;;12.83;100.00
67654;BME280;54791;52.364;4.648;2022-10-16T07:32:34;101190.41;;;12.82;100.00
67654;BME280;54791;52.364;4.648;2022-10-16T07:35:00;101192.03;;;12.86;100.00
67654;BME280;54791;52.364;4.648;2022-10-16T07:37:26;101203.34;;;12.92;100.00
67654;BME280;54791;52.364;4.648;2022-10-16T07:39:52;101212.53;;;13.05;100.00
67654;BME280;54791;52.364;4.648;2022-10-16T07:42:17;101209.78;;;13.07;100.00
67654;BME280;54791;52.364;4.648;2022-10-16T07:44:43;101219.34;;;13.12;100.00
67654;BME280;54791;52.364;4.648;2022-10-16T07:47:09;101221.66;;;13.20;100.00
67654;BME280;54791;52.364;4.648;2022-10-16T07:49:35;101226.84;;;13.23;100.00
67654;BME280;54791;52.364;4.648;2022-10-16T07:52:00;101230.66;;;13.17;100.00
67654;BME280;54791;52.364;4.648;2022-10-16T07:54:26;101225.50;;;13.33;100.00
67654;BME280;54791;52.364;4.648;2022-10-16T07:56:52;101231.25;;;13.45;100.00
67654;BME280;54791;52.364;4.648;2022-10-16T07:59:18;101230.13;;;13.50;100.00
67654;BME280;54791;52.364;4.648;2022-10-16T08:01:44;101235.84;;;13.62;100.00
67654;BME280;54791;52.364;4.648;2022-10-16T08:04:11;101232.81;;;13.70;100.00
67654;BME280;54791;52.364;4.648;2022-10-16T08:06:38;101247.72;;;13.74;100.00
67654;BME280;54791;52.364;4.648;2022-10-16T08:09:04;101252.63;;;13.83;100.00
67654;BME280;54791;52.364;4.648;2022-10-16T08:11:30;101247.75;;;13.93;100.00
67654;BME280;54791;52.364;4.648;2022-10-16T08:13:56;101253.88;;;13.95;100.00
67654;BME280;54791;52.364;4.648;2022-10-16T08:16:22;101257.91;;;14.04;100.00
67654;BME280;54791;52.364;4.648;2022-10-16T08:18:48;101266.84;;;14.22;100.00
67654;BME280;54791;52.364;4.648;2022-10-16T08:21:17;101272.59;;;14.50;100.00
67654;BME280;54791;52.364;4.648;2022-10-16T08:23:43;101271.13;;;14.62;100.00
67654;BME280;54791;52.364;4.648;2022-10-16T08:26:10;101269.09;;;14.69;100.00
67654;BME280;54791;52.364;4.648;2022-10-16T08:28:37;101271.38;;;14.77;100.00
67654;BME280;54791;52.364;4.648;2022-10-16T08:31:09;101277.41;;;14.80;100.00
67654;BME280;54791;52.364;4.648;2022-10-16T08:33:35;101281.78;;;14.64;100.00
67654;BME280;54791;52.364;4.648;2022-10-16T08:36:02;101298.72;;;14.82;100.00
67654;BME280;54791;52.364;4.648;2022-10-16T08:38:28;101309.78;;;14.92;100.00
67654;BME280;54791;52.364;4.648;2022-10-16T08:41:04;101297.81;;;14.64;100.00
67654;BME280;54791;52.364;4.648;2022-10-16T08:47:18;101311.13;;;14.45;100.00
67654;BME280;54791;52.364;4.648;2022-10-16T08:49:43;101323.00;;;14.38;100.00
67654;BME280;54791;52.364;4.648;2022-10-16T08:52:15;101316.44;;;14.26;100.00
67654;BME280;54791;52.364;4.648;2022-10-16T08:54:44;101325.97;;;14.31;100.00
67654;BME280;54791;52.364;4.648;2022-10-16T08:57:16;101329.75;;;14.65;100.00
67654;BME280;54791;52.364;4.648;2022-10-16T08:59:42;101347.13;;;14.74;100.00
67654;BME280;54791;52.364;4.648;2022-10-16T09:02:39;101354.22;;;14.55;100.00
67654;BME280;54791;52.364;4.648;2022-10-16T09:05:47;101354.97;;;14.39;100.00
67654;BME280;54791;52.364;4.648;2022-10-16T09:08:54;101355.59;;;14.25;100.00
67654;BME280;54791;52.364;4.648;2022-10-16T09:13:58;101356.47;;;14.45;100.00
67654;BME280;54791;52.364;4.648;2022-10-16T09:16:40;101362.97;;;14.77;100.00
67654;BME280;54791;52.364;4.648;2022-10-16T09:19:31;101366.22;;;14.65;100.00
67654;BME280;54791;52.364;4.648;2022-10-16T09:22:04;101360.19;;;15.17;100.00
67654;BME280;54791;52.364;4.648;2022-10-16T09:24:36;101371.41;;;15.24;100.00
67654;BME280;54791;52.364;4.648;2022-10-16T09:27:02;101379.47;;;15.59;100.00
67654;BME280;54791;52.364;4.648;2022-10-16T09:29:28;101371.22;;;15.63;100.00
67654;BME280;54791;52.364;4.648;2022-10-16T09:31:55;101371.63;;;15.91;100.00
67654;BME280;54791;52.364;4.648;2022-10-16T09:34:32;101394.19;;;15.85;100.00
67654;BME280;54791;52.364;4.648;2022-10-16T09:37:04;101385.88;;;16.07;100.00
67654;BME280;54791;52.364;4.648;2022-10-16T09:39:48;101391.53;;;16.19;100.00
67654;BME280;54791;52.364;4.648;2022-10-16T09:42:19;101386.97;;;16.54;100.00
67654;BME280;54791;52.364;4.648;2022-10-16T09:44:48;101393.66;;;16.29;100.00
67654;BME280;54791;52.364;4.648;2022-10-16T09:49:53;101390.66;;;16.52;100.00
67654;BME280;54791;52.364;4.648;2022-10-16T09:52:21;101390.50;;;16.55;100.00
67654;BME280;54791;52.364;4.648;2022-10-16T09:54:54;101389.97;;;16.64;100.00
67654;BME280;54791;52.364;4.648;2022-10-16T09:57:20;101385.09;;;16.72;100.00
67654;BME280;54791;52.364;4.648;2022-10-16T09:59:48;101393.63;;;16.79;100.00
67654;BME280;54791;52.364;4.648;2022-10-16T10:02:16;101400.97;;;16.75;100.00
67654;BME280;54791;52.364;4.648;2022-10-16T10:04:50;101399.31;;;16.57;100.00
67654;BME280;54791;52.364;4.648;2022-10-16T10:07:24;101397.28;;;16.44;100.00
67654;BME280;54791;52.364;4.648;2022-10-16T10:09:54;101391.28;;;16.57;100.00
67654;BME280;54791;52.364;4.648;2022-10-16T10:12:24;101392.16;;;16.89;100.00
67654;BME280;54791;52.364;4.648;2022-10-16T10:14:55;101395.78;;;16.88;100.00
67654;BME280;54791;52.364;4.648;2022-10-16T10:17:27;101408.28;;;16.56;100.00
67654;BME280;54791;52.364;4.648;2022-10-16T10:20:18;101420.53;;;16.44;100.00
67654;BME280;54791;52.364;4.648;2022-10-16T10:22:46;101426.13;;;16.39;100.00
67654;BME280;54791;52.364;4.648;2022-10-16T10:30:50;101439.69;;;16.36;100.00
67654;BME280;54791;52.364;4.648;2022-10-16T10:33:48;101445.66;;;16.24;100.00
67654;BME280;54791;52.364;4.648;2022-10-16T10:36:34;101446.41;;;16.43;100.00
67654;BME280;54791;52.364;4.648;2022-10-16T10:42:29;101459.50;;;16.65;100.00
67654;BME280;54791;52.364;4.648;2022-10-16T10:45:13;101461.84;;;16.38;100.00
67654;BME280;54791;52.364;4.648;2022-10-16T10:48:20;101455.75;;;16.19;100.00
67654;BME280;54791;52.364;4.648;2022-10-16T10:53:36;101456.25;;;16.43;100.00
67654;BME280;54791;52.364;4.648;2022-10-16T10:56:47;101464.78;;;16.67;100.00
67654;BME280;54791;52.364;4.648;2022-10-16T11:04:41;101471.72;;;16.03;100.00
67654;BME280;54791;52.364;4.648;2022-10-16T11:07:27;101480.19;;;15.76;100.00
67654;BME280;54791;52.364;4.648;2022-10-16T11:09:57;101476.78;;;15.72;100.00
67654;BME280;54791;52.364;4.648;2022-10-16T11:12:31;101486.28;;;15.60;100.00
67654;BME280;54791;52.364;4.648;2022-10-16T11:15:21;101484.03;;;15.70;100.00
67654;BME280;54791;52.364;4.648;2022-10-16T11:18:24;101475.50;;;15.98;100.00
67654;BME280;54791;52.364;4.648;2022-10-16T11:20:42;101484.63;;;16.29;100.00
67654;BME280;54791;52.364;4.648;2022-10-16T11:23:16;101494.88;;;16.55;100.00
67654;BME280;54791;52.364;4.648;2022-10-16T11:25:45;101502.50;;;16.62;100.00
67654;BME280;54791;52.364;4.648;2022-10-16T11:30:48;101501.16;;;16.71;100.00
67654;BME280;54791;52.364;4.648;2022-10-16T11:35:50;101512.28;;;16.97;100.00
67654;BME280;54791;52.364;4.648;2022-10-16T11:41:10;101506.63;;;16.86;100.00
67654;BME280;54791;52.364;4.648;2022-10-16T11:43:42;101508.06;;;16.93;100.00
67654;BME280;54791;52.364;4.648;2022-10-16T11:46:15;101509.47;;;16.83;100.00
67654;BME280;54791;52.364;4.648;2022-10-16T11:48:49;101504.59;;;16.91;100.00
67654;BME280;54791;52.364;4.648;2022-10-16T11:51:22;101501.31;;;17.50;100.00
67654;BME280;54791;52.364;4.648;2022-10-16T11:53:53;101509.47;;;17.94;100.00
67654;BME280;54791;52.364;4.648;2022-10-16T11:56:21;101500.84;;;17.73;100.00
67654;BME280;54791;52.364;4.648;2022-10-16T11:58:59;101499.38;;;17.68;100.00
67654;BME280;54791;52.364;4.648;2022-10-16T12:04:19;101519.19;;;17.65;100.00
67654;BME280;54791;52.364;4.648;2022-10-16T12:06:44;101514.13;;;17.91;100.00
67654;BME280;54791;52.364;4.648;2022-10-16T12:09:33;101520.22;;;18.25;100.00
67654;BME280;54791;52.364;4.648;2022-10-16T12:12:00;101525.13;;;18.33;100.00
67654;BME280;54791;52.364;4.648;2022-10-16T12:17:04;101534.13;;;18.01;100.00
67654;BME280;54791;52.364;4.648;2022-10-16T12:19:58;101539.81;;;18.11;100.00
67654;BME280;54791;52.364;4.648;2022-10-16T12:22:27;101540.19;;;18.05;100.00
67654;BME280;54791;52.364;4.648;2022-10-16T12:24:54;101536.13;;;17.82;100.00
67654;BME280;54791;52.364;4.648;2022-10-16T12:27:28;101536.50;;;18.22;100.00
67654;BME280;54791;52.364;4.648;2022-10-16T12:29:57;101535.00;;;17.86;100.00
67654;BME280;54791;52.364;4.648;2022-10-16T12:32:31;101543.25;;;18.13;100.00
67654;BME280;54791;52.364;4.648;2022-10-16T12:34:59;101545.34;;;18.08;100.00
67654;BME280;54791;52.364;4.648;2022-10-16T12:37:36;101543.25;;;17.67;100.00
67654;BME280;54791;52.364;4.648;2022-10-16T12:40:22;101550.84;;;18.21;100.00
67654;BME280;54791;52.364;4.648;2022-10-16T12:42:50;101542.38;;;17.98;100.00
67654;BME280;54791;52.364;4.648;2022-10-16T12:45:33;101543.56;;;17.76;100.00
67654;BME280;54791;52.364;4.648;2022-10-16T12:48:01;101566.59;;;17.65;100.00
67654;BME280;54791;52.364;4.648;2022-10-16T12:50:38;101554.22;;;17.78;100.00
67654;BME280;54791;52.364;4.648;2022-10-16T12:53:26;101562.25;;;18.10;100.00
67654;BME280;54791;52.364;4.648;2022-10-16T13:01:26;101558.97;;;18.05;100.00
67654;BME280;54791;52.364;4.648;2022-10-16T13:09:45;101565.03;;;17.28;100.00
67654;BME280;54791;52.364;4.648;2022-10-16T13:12:17;101560.03;;;17.38;100.00
67654;BME280;54791;52.364;4.648;2022-10-16T13:20:35;101559.94;;;17.56;100.00
67654;BME280;54791;52.364;4.648;2022-10-16T13:28:42;101576.28;;;17.35;100.00
67654;BME280;54791;52.364;4.648;2022-10-16T13:31:24;101586.66;;;16.92;100.00
67654;BME280;54791;52.364;4.648;2022-10-16T13:33:52;101578.97;;;16.51;100.00
67654;BME280;54791;52.364;4.648;2022-10-16T13:36:26;101593.13;;;16.53;100.00
67654;BME280;54791;52.364;4.648;2022-10-16T13:39:10;101589.41;;;16.55;100.00
67654;BME280;54791;52.364;4.648;2022-10-16T13:41:37;101589.81;;;16.65;100.00
67654;BME280;54791;52.364;4.648;2022-10-16T13:44:04;101592.34;;;16.51;100.00
67654;BME280;54791;52.364;4.648;2022-10-16T13:46:30;101603.34;;;16.79;100.00
67654;BME280;54791;52.364;4.648;2022-10-16T13:49:05;101599.06;;;16.59;100.00
67654;BME280;54791;52.364;4.648;2022-10-16T13:51:32;101600.84;;;16.59;100.00
67654;BME280;54791;52.364;4.648;2022-10-16T13:53:59;101600.06;;;16.39;100.00
67654;BME280;54791;52.364;4.648;2022-10-16T13:56:27;101601.94;;;16.20;100.00
67654;BME280;54791;52.364;4.648;2022-10-16T13:59:04;101604.00;;;16.50;100.00
67654;BME280;54791;52.364;4.648;2022-10-16T14:01:34;101599.41;;;16.69;100.00
67654;BME280;54791;52.364;4.648;2022-10-16T14:04:04;101603.13;;;16.67;100.00